Terminal Aerodrome Forecast
Issued by NWS Lake Charles, LA

Home | Current Version | Previous Version | Text Only | Print | Product List | Glossary On
Versions: 1 2 3 4 5 6 7 8 9 10 11 12 13 14 15
000
FTUS44 KLCH 230100 AAA
TAFAEX
TAF AMD
KAEX 230114Z 2301/2324 VRB05KT P6SM VCSH SCT040 SCT250
      TEMPO 2301/2302 3SM TSRA SCT020 BKN030CB
     FM231700 VRB05KT P6SM VCTS SCT030CB BKN250
      TEMPO 2320/2324 VRB15G19KT 3SM TSRA SCT025 OVC030CB=

USA.gov is the U.S. government's official web portal to all federal, state and local government web resources and services.